sensor_id;sensor_type;location;lat;lon;timestamp;temperature;humidity
29849;DHT22;16728;50.832;5.590;2022-11-12T00:00:14;8.70;99.90
29849;DHT22;16728;50.832;5.590;2022-11-12T00:03:16;8.60;99.90
29849;DHT22;16728;50.832;5.590;2022-11-12T00:06:18;8.60;99.90
29849;DHT22;16728;50.832;5.590;2022-11-12T00:09:20;8.60;99.90
29849;DHT22;16728;50.832;5.590;2022-11-12T00:12:22;8.60;99.90
29849;DHT22;16728;50.832;5.590;2022-11-12T00:15:23;8.60;99.90
29849;DHT22;16728;50.832;5.590;2022-11-12T00:18:26;8.60;99.90
29849;DHT22;16728;50.832;5.590;2022-11-12T00:21:29;8.50;99.90
29849;DHT22;16728;50.832;5.590;2022-11-12T00:24:30;8.50;99.90
29849;DHT22;16728;50.832;5.590;2022-11-12T00:27:33;8.50;99.90
29849;DHT22;16728;50.832;5.590;2022-11-12T00:30:39;8.30;99.90
29849;DHT22;16728;50.832;5.590;2022-11-12T00:33:42;8.30;99.90
29849;DHT22;16728;50.832;5.590;2022-11-12T00:36:44;8.30;99.90
29849;DHT22;16728;50.832;5.590;2022-11-12T00:39:47;8.20;99.90
29849;DHT22;16728;50.832;5.590;2022-11-12T00:42:50;8.30;99.90
29849;DHT22;16728;50.832;5.590;2022-11-12T00:45:52;8.30;99.90
29849;DHT22;16728;50.832;5.590;2022-11-12T00:48:55;8.20;99.90
29849;DHT22;16728;50.832;5.590;2022-11-12T00:51:56;8.10;99.90
29849;DHT22;16728;50.832;5.590;2022-11-12T00:54:58;8.10;99.90
29849;DHT22;16728;50.832;5.590;2022-11-12T00:58:00;8.10;99.90
29849;DHT22;16728;50.832;5.590;2022-11-12T01:01:11;8.20;99.90
29849;DHT22;16728;50.832;5.590;2022-11-12T01:04:13;8.10;99.90
29849;DHT22;16728;50.832;5.590;2022-11-12T01:07:15;8.10;99.90
29849;DHT22;16728;50.832;5.590;2022-11-12T01:10:17;8.10;99.90
29849;DHT22;16728;50.832;5.590;2022-11-12T01:13:19;8.00;99.90
29849;DHT22;16728;50.832;5.590;2022-11-12T01:16:23;7.90;99.90
29849;DHT22;16728;50.832;5.590;2022-11-12T01:19:25;7.90;99.90
29849;DHT22;16728;50.832;5.590;2022-11-12T01:22:27;7.90;99.90
29849;DHT22;16728;50.832;5.590;2022-11-12T01:25:29;7.90;99.90
29849;DHT22;16728;50.832;5.590;2022-11-12T01:28:31;7.90;99.90
29849;DHT22;16728;50.832;5.590;2022-11-12T01:31:35;7.90;99.90
29849;DHT22;16728;50.832;5.590;2022-11-12T01:34:37;7.90;99.90
29849;DHT22;16728;50.832;5.590;2022-11-12T01:37:38;7.90;99.90
29849;DHT22;16728;50.832;5.590;2022-11-12T01:40:41;8.00;99.90
29849;DHT22;16728;50.832;5.590;2022-11-12T01:43:43;7.80;99.90
29849;DHT22;16728;50.832;5.590;2022-11-12T01:50:29;7.80;99.90
29849;DHT22;16728;50.832;5.590;2022-11-12T01:53:39;7.70;99.90
29849;DHT22;16728;50.832;5.590;2022-11-12T01:56:43;7.60;99.90
29849;DHT22;16728;50.832;5.590;2022-11-12T01:59:47;7.60;99.90
29849;DHT22;16728;50.832;5.590;2022-11-12T02:02:57;7.60;99.90
29849;DHT22;16728;50.832;5.590;2022-11-12T02:06:02;7.50;99.90
29849;DHT22;16728;50.832;5.590;2022-11-12T02:09:05;7.60;99.90
29849;DHT22;16728;50.832;5.590;2022-11-12T02:12:07;7.60;99.90
29849;DHT22;16728;50.832;5.590;2022-11-12T02:15:29;7.50;99.90
29849;DHT22;16728;50.832;5.590;2022-11-12T02:18:31;7.60;99.90
29849;DHT22;16728;50.832;5.590;2022-11-12T02:21:34;7.50;99.90
29849;DHT22;16728;50.832;5.590;2022-11-12T02:24:36;7.50;99.90
29849;DHT22;16728;50.832;5.590;2022-11-12T02:27:38;7.60;99.90
29849;DHT22;16728;50.832;5.590;2022-11-12T02:30:43;7.50;99.90
29849;DHT22;16728;50.832;5.590;2022-11-12T02:33:46;7.50;99.90
29849;DHT22;16728;50.832;5.590;2022-11-12T02:36:47;7.50;99.90
29849;DHT22;16728;50.832;5.590;2022-11-12T02:39:49;7.50;99.90
29849;DHT22;16728;50.832;5.590;2022-11-12T02:42:51;7.50;99.90
29849;DHT22;16728;50.832;5.590;2022-11-12T02:45:53;7.50;99.90
29849;DHT22;16728;50.832;5.590;2022-11-12T02:48:55;7.50;99.90
29849;DHT22;16728;50.832;5.590;2022-11-12T02:51:57;7.40;99.90
29849;DHT22;16728;50.832;5.590;2022-11-12T02:54:59;7.40;99.90
29849;DHT22;16728;50.832;5.590;2022-11-12T02:58:01;7.50;99.90
29849;DHT22;16728;50.832;5.590;2022-11-12T03:01:03;7.40;99.90
29849;DHT22;16728;50.832;5.590;2022-11-12T03:04:06;7.20;99.90
29849;DHT22;16728;50.832;5.590;2022-11-12T03:07:08;7.30;99.90
29849;DHT22;16728;50.832;5.590;2022-11-12T03:10:10;7.20;99.90
29849;DHT22;16728;50.832;5.590;2022-11-12T03:13:12;7.20;99.90
29849;DHT22;16728;50.832;5.590;2022-11-12T03:16:14;7.20;99.90
29849;DHT22;16728;50.832;5.590;2022-11-12T03:19:16;7.20;99.90
29849;DHT22;16728;50.832;5.590;2022-11-12T03:22:18;7.20;99.90
29849;DHT22;16728;50.832;5.590;2022-11-12T03:25:20;7.20;99.90
29849;DHT22;16728;50.832;5.590;2022-11-12T03:28:21;7.20;99.90
29849;DHT22;16728;50.832;5.590;2022-11-12T03:31:23;7.20;99.90
29849;DHT22;16728;50.832;5.590;2022-11-12T03:34:25;7.20;99.90
29849;DHT22;16728;50.832;5.590;2022-11-12T03:37:27;7.30;99.90
29849;DHT22;16728;50.832;5.590;2022-11-12T03:40:30;7.10;99.90
29849;DHT22;16728;50.832;5.590;2022-11-12T03:43:32;7.10;99.90
29849;DHT22;16728;50.832;5.590;2022-11-12T03:46:33;7.10;99.90
29849;DHT22;16728;50.832;5.590;2022-11-12T03:49:40;7.10;99.90
29849;DHT22;16728;50.832;5.590;2022-11-12T03:52:47;7.10;99.90
29849;DHT22;16728;50.832;5.590;2022-11-12T03:55:49;7.10;99.90
29849;DHT22;16728;50.832;5.590;2022-11-12T03:58:51;7.10;99.90
29849;DHT22;16728;50.832;5.590;2022-11-12T04:01:53;7.10;99.90
29849;DHT22;16728;50.832;5.590;2022-11-12T04:04:55;7.10;99.90
29849;DHT22;16728;50.832;5.590;2022-11-12T04:08:17;7.00;99.90
29849;DHT22;16728;50.832;5.590;2022-11-12T04:11:38;7.00;99.90
29849;DHT22;16728;50.832;5.590;2022-11-12T04:14:40;7.00;99.90
29849;DHT22;16728;50.832;5.590;2022-11-12T04:17:42;6.90;99.90
29849;DHT22;16728;50.832;5.590;2022-11-12T04:21:02;6.90;99.90
29849;DHT22;16728;50.832;5.590;2022-11-12T04:24:24;6.90;99.90
29849;DHT22;16728;50.832;5.590;2022-11-12T04:27:44;6.90;99.90
29849;DHT22;16728;50.832;5.590;2022-11-12T04:30:46;6.80;99.90
29849;DHT22;16728;50.832;5.590;2022-11-12T04:33:48;6.80;99.90
29849;DHT22;16728;50.832;5.590;2022-11-12T04:36:50;6.90;99.90
29849;DHT22;16728;50.832;5.590;2022-11-12T04:39:52;6.80;99.90
29849;DHT22;16728;50.832;5.590;2022-11-12T04:42:54;6.90;99.90
29849;DHT22;16728;50.832;5.590;2022-11-12T04:46:14;6.90;99.90
29849;DHT22;16728;50.832;5.590;2022-11-12T04:49:16;7.00;99.90
29849;DHT22;16728;50.832;5.590;2022-11-12T04:52:18;6.90;99.90
29849;DHT22;16728;50.832;5.590;2022-11-12T04:55:20;6.90;99.90
29849;DHT22;16728;50.832;5.590;2022-11-12T04:58:23;6.90;99.90
29849;DHT22;16728;50.832;5.590;2022-11-12T05:01:25;6.90;99.90
29849;DHT22;16728;50.832;5.590;2022-11-12T05:04:27;7.00;99.90
29849;DHT22;16728;50.832;5.590;2022-11-12T05:07:31;7.00;99.90
29849;DHT22;16728;50.832;5.590;2022-11-12T05:10:34;6.90;99.90
29849;DHT22;16728;50.832;5.590;2022-11-12T05:13:36;6.90;99.90
29849;DHT22;16728;50.832;5.590;2022-11-12T05:16:37;6.90;99.90
29849;DHT22;16728;50.832;5.590;2022-11-12T05:19:39;6.80;99.90
29849;DHT22;16728;50.832;5.590;2022-11-12T05:22:41;6.80;99.90
29849;DHT22;16728;50.832;5.590;2022-11-12T05:25:55;6.80;99.90
29849;DHT22;16728;50.832;5.590;2022-11-12T05:28:57;6.80;99.90
29849;DHT22;16728;50.832;5.590;2022-11-12T05:31:58;6.70;99.90
29849;DHT22;16728;50.832;5.590;2022-11-12T05:35:01;6.80;99.90
29849;DHT22;16728;50.832;5.590;2022-11-12T05:38:05;6.70;99.90
29849;DHT22;16728;50.832;5.590;2022-11-12T05:41:07;6.70;99.90
29849;DHT22;16728;50.832;5.590;2022-11-12T05:44:09;6.60;99.90
29849;DHT22;16728;50.832;5.590;2022-11-12T05:47:11;6.60;99.90
29849;DHT22;16728;50.832;5.590;2022-11-12T05:50:13;6.60;99.90
29849;DHT22;16728;50.832;5.590;2022-11-12T05:53:15;6.50;99.90
29849;DHT22;16728;50.832;5.590;2022-11-12T05:56:17;6.50;99.90
29849;DHT22;16728;50.832;5.590;2022-11-12T05:59:19;6.50;99.90
29849;DHT22;16728;50.832;5.590;2022-11-12T06:02:21;6.30;99.90
29849;DHT22;16728;50.832;5.590;2022-11-12T06:05:22;6.40;99.90
29849;DHT22;16728;50.832;5.590;2022-11-12T06:08:24;6.50;99.90
29849;DHT22;16728;50.832;5.590;2022-11-12T06:11:27;6.40;99.90
29849;DHT22;16728;50.832;5.590;2022-11-12T06:14:29;6.40;99.90
29849;DHT22;16728;50.832;5.590;2022-11-12T06:17:30;6.50;99.90
29849;DHT22;16728;50.832;5.590;2022-11-12T06:20:34;6.60;99.90
29849;DHT22;16728;50.832;5.590;2022-11-12T06:23:36;6.50;99.90
29849;DHT22;16728;50.832;5.590;2022-11-12T06:26:38;6.50;99.90
29849;DHT22;16728;50.832;5.590;2022-11-12T06:29:40;6.50;99.90
29849;DHT22;16728;50.832;5.590;2022-11-12T06:32:45;6.50;99.90
29849;DHT22;16728;50.832;5.590;2022-11-12T06:35:56;6.40;99.90
29849;DHT22;16728;50.832;5.590;2022-11-12T06:38:59;6.40;99.90
29849;DHT22;16728;50.832;5.590;2022-11-12T06:42:01;6.40;99.90
29849;DHT22;16728;50.832;5.590;2022-11-12T06:45:03;6.40;99.90
29849;DHT22;16728;50.832;5.590;2022-11-12T06:48:05;6.30;99.90
29849;DHT22;16728;50.832;5.590;2022-11-12T06:51:10;6.30;99.90
29849;DHT22;16728;50.832;5.590;2022-11-12T06:54:12;6.30;99.90
29849;DHT22;16728;50.832;5.590;2022-11-12T06:57:14;6.30;99.90
29849;DHT22;16728;50.832;5.590;2022-11-12T07:00:16;6.20;99.90
29849;DHT22;16728;50.832;5.590;2022-11-12T07:03:18;6.30;99.90
29849;DHT22;16728;50.832;5.590;2022-11-12T07:06:20;6.20;99.90
29849;DHT22;16728;50.832;5.590;2022-11-12T07:09:22;6.20;99.90
29849;DHT22;16728;50.832;5.590;2022-11-12T07:12:24;6.30;99.90
29849;DHT22;16728;50.832;5.590;2022-11-12T07:15:26;6.20;99.90
29849;DHT22;16728;50.832;5.590;2022-11-12T07:18:28;6.30;99.90
29849;DHT22;16728;50.832;5.590;2022-11-12T07:21:30;6.30;99.90
29849;DHT22;16728;50.832;5.590;2022-11-12T07:24:32;6.30;99.90
29849;DHT22;16728;50.832;5.590;2022-11-12T07:27:34;6.30;99.90
29849;DHT22;16728;50.832;5.590;2022-11-12T07:30:36;6.30;99.90
29849;DHT22;16728;50.832;5.590;2022-11-12T07:33:38;6.30;99.90
29849;DHT22;16728;50.832;5.590;2022-11-12T07:36:42;6.30;99.90
29849;DHT22;16728;50.832;5.590;2022-11-12T07:39:45;6.50;99.90
29849;DHT22;16728;50.832;5.590;2022-11-12T07:42:47;6.50;99.90
29849;DHT22;16728;50.832;5.590;2022-11-12T07:45:49;6.70;99.90
29849;DHT22;16728;50.832;5.590;2022-11-12T07:48:52;6.70;99.90
29849;DHT22;16728;50.832;5.590;2022-11-12T07:51:54;6.80;99.90
29849;DHT22;16728;50.832;5.590;2022-11-12T07:54:56;6.90;99.90
29849;DHT22;16728;50.832;5.590;2022-11-12T07:57:58;6.90;99.90
29849;DHT22;16728;50.832;5.590;2022-11-12T08:04:26;7.00;99.90
29849;DHT22;16728;50.832;5.590;2022-11-12T08:07:28;7.10;99.90
29849;DHT22;16728;50.832;5.590;2022-11-12T08:10:30;7.20;99.90
29849;DHT22;16728;50.832;5.590;2022-11-12T08:13:32;7.30;99.90
29849;DHT22;16728;50.832;5.590;2022-11-12T08:16:34;7.40;99.90
29849;DHT22;16728;50.832;5.590;2022-11-12T08:19:36;7.40;99.90
29849;DHT22;16728;50.832;5.590;2022-11-12T08:22:37;7.50;99.90
29849;DHT22;16728;50.832;5.590;2022-11-12T08:25:39;7.60;99.90
29849;DHT22;16728;50.832;5.590;2022-11-12T08:28:41;7.70;99.90
29849;DHT22;16728;50.832;5.590;2022-11-12T08:31:45;7.70;99.90
29849;DHT22;16728;50.832;5.590;2022-11-12T08:34:46;7.70;99.90
29849;DHT22;16728;50.832;5.590;2022-11-12T08:37:49;7.90;99.90
29849;DHT22;16728;50.832;5.590;2022-11-12T08:40:51;8.00;99.90
29849;DHT22;16728;50.832;5.590;2022-11-12T08:43:53;8.10;99.90
29849;DHT22;16728;50.832;5.590;2022-11-12T08:46:54;8.10;99.90
29849;DHT22;16728;50.832;5.590;2022-11-12T08:49:56;8.30;99.90
29849;DHT22;16728;50.832;5.590;2022-11-12T08:53:02;8.40;99.90
29849;DHT22;16728;50.832;5.590;2022-11-12T08:56:05;8.50;99.90
29849;DHT22;16728;50.832;5.590;2022-11-12T08:59:07;8.60;99.90
29849;DHT22;16728;50.832;5.590;2022-11-12T09:02:12;8.70;99.90
29849;DHT22;16728;50.832;5.590;2022-11-12T09:05:14;8.80;99.90
29849;DHT22;16728;50.832;5.590;2022-11-12T09:08:19;8.90;99.90
29849;DHT22;16728;50.832;5.590;2022-11-12T09:11:21;9.00;99.90
29849;DHT22;16728;50.832;5.590;2022-11-12T09:14:23;9.10;99.90
29849;DHT22;16728;50.832;5.590;2022-11-12T09:17:24;9.20;99.90
29849;DHT22;16728;50.832;5.590;2022-11-12T09:20:27;9.30;99.90
29849;DHT22;16728;50.832;5.590;2022-11-12T09:23:29;9.30;99.90
29849;DHT22;16728;50.832;5.590;2022-11-12T09:26:31;9.40;99.90
29849;DHT22;16728;50.832;5.590;2022-11-12T09:29:33;9.50;99.90
29849;DHT22;16728;50.832;5.590;2022-11-12T09:32:35;9.60;99.90
29849;DHT22;16728;50.832;5.590;2022-11-12T09:35:36;9.80;99.90
29849;DHT22;16728;50.832;5.590;2022-11-12T09:38:38;9.90;99.90
29849;DHT22;16728;50.832;5.590;2022-11-12T09:41:41;10.00;99.90
29849;DHT22;16728;50.832;5.590;2022-11-12T09:44:45;10.10;99.90
29849;DHT22;16728;50.832;5.590;2022-11-12T09:47:54;10.30;99.90
29849;DHT22;16728;50.832;5.590;2022-11-12T09:51:00;10.30;99.90
29849;DHT22;16728;50.832;5.590;2022-11-12T09:54:23;10.40;99.90
29849;DHT22;16728;50.832;5.590;2022-11-12T09:57:26;10.60;99.90
29849;DHT22;16728;50.832;5.590;2022-11-12T10:00:29;10.70;99.90
29849;DHT22;16728;50.832;5.590;2022-11-12T10:03:38;10.80;99.90
29849;DHT22;16728;50.832;5.590;2022-11-12T10:06:50;10.90;99.90
29849;DHT22;16728;50.832;5.590;2022-11-12T10:13:12;11.20;99.90
29849;DHT22;16728;50.832;5.590;2022-11-12T10:16:39;11.30;99.90
29849;DHT22;16728;50.832;5.590;2022-11-12T10:25:59;11.60;99.90
29849;DHT22;16728;50.832;5.590;2022-11-12T10:32:14;11.60;99.90
29849;DHT22;16728;50.832;5.590;2022-11-12T10:35:18;11.70;99.90
29849;DHT22;16728;50.832;5.590;2022-11-12T10:38:25;11.80;99.90
29849;DHT22;16728;50.832;5.590;2022-11-12T10:41:31;11.90;99.90
29849;DHT22;16728;50.832;5.590;2022-11-12T10:44:33;12.00;99.90
29849;DHT22;16728;50.832;5.590;2022-11-12T10:47:38;12.10;99.90
29849;DHT22;16728;50.832;5.590;2022-11-12T10:50:43;12.20;99.90
29849;DHT22;16728;50.832;5.590;2022-11-12T10:53:45;12.20;99.90
29849;DHT22;16728;50.832;5.590;2022-11-12T10:56:47;12.20;99.90
29849;DHT22;16728;50.832;5.590;2022-11-12T11:00:25;12.30;99.90
29849;DHT22;16728;50.832;5.590;2022-11-12T11:03:55;12.40;99.90
29849;DHT22;16728;50.832;5.590;2022-11-12T11:07:22;12.50;99.90
29849;DHT22;16728;50.832;5.590;2022-11-12T11:10:31;12.50;99.90
29849;DHT22;16728;50.832;5.590;2022-11-12T11:13:33;12.60;99.90
29849;DHT22;16728;50.832;5.590;2022-11-12T11:16:51;12.70;99.90
29849;DHT22;16728;50.832;5.590;2022-11-12T11:19:54;12.70;99.90
29849;DHT22;16728;50.832;5.590;2022-11-12T11:23:01;12.80;99.90
29849;DHT22;16728;50.832;5.590;2022-11-12T11:29:50;13.10;99.90
29849;DHT22;16728;50.832;5.590;2022-11-12T11:33:27;13.20;99.90
29849;DHT22;16728;50.832;5.590;2022-11-12T11:37:00;13.30;99.90
29849;DHT22;16728;50.832;5.590;2022-11-12T11:47:22;13.70;99.90
29849;DHT22;16728;50.832;5.590;2022-11-12T11:50:28;13.80;99.90
29849;DHT22;16728;50.832;5.590;2022-11-12T11:53:42;13.90;99.90
29849;DHT22;16728;50.832;5.590;2022-11-12T11:56:49;14.00;99.90
29849;DHT22;16728;50.832;5.590;2022-11-12T12:03:20;14.20;99.90
29849;DHT22;16728;50.832;5.590;2022-11-12T12:06:27;14.20;99.90
29849;DHT22;16728;50.832;5.590;2022-11-12T12:09:59;14.30;99.90
29849;DHT22;16728;50.832;5.590;2022-11-12T12:19:45;14.50;99.90
29849;DHT22;16728;50.832;5.590;2022-11-12T12:23:25;14.50;99.90
29849;DHT22;16728;50.832;5.590;2022-11-12T12:26:39;14.60;99.90
29849;DHT22;16728;50.832;5.590;2022-11-12T12:29:49;14.60;99.90
29849;DHT22;16728;50.832;5.590;2022-11-12T12:32:59;14.50;99.90
29849;DHT22;16728;50.832;5.590;2022-11-12T12:36:10;14.60;99.90
29849;DHT22;16728;50.832;5.590;2022-11-12T12:39:18;14.80;99.90
29849;DHT22;16728;50.832;5.590;2022-11-12T12:42:28;14.70;99.90
29849;DHT22;16728;50.832;5.590;2022-11-12T12:45:42;14.70;99.90
29849;DHT22;16728;50.832;5.590;2022-11-12T12:48:45;14.70;99.90
29849;DHT22;16728;50.832;5.590;2022-11-12T12:51:47;14.60;99.90
29849;DHT22;16728;50.832;5.590;2022-11-12T12:54:56;14.60;99.90
29849;DHT22;16728;50.832;5.590;2022-11-12T12:58:01;14.50;99.90
29849;DHT22;16728;50.832;5.590;2022-11-12T13:01:06;14.50;99.90
29849;DHT22;16728;50.832;5.590;2022-11-12T13:04:09;14.50;99.90
29849;DHT22;16728;50.832;5.590;2022-11-12T13:07:12;14.60;99.90
29849;DHT22;16728;50.832;5.590;2022-11-12T13:13:47;15.20;99.90
29849;DHT22;16728;50.832;5.590;2022-11-12T13:22:59;15.10;99.90
29849;DHT22;16728;50.832;5.590;2022-11-12T13:29:41;15.20;99.90
29849;DHT22;16728;50.832;5.590;2022-11-12T13:35:49;15.30;99.90
29849;DHT22;16728;50.832;5.590;2022-11-12T13:38:51;15.10;99.90
29849;DHT22;16728;50.832;5.590;2022-11-12T13:42:12;15.10;99.90
29849;DHT22;16728;50.832;5.590;2022-11-12T13:45:50;14.90;99.90
29849;DHT22;16728;50.832;5.590;2022-11-12T13:49:03;14.90;99.90
29849;DHT22;16728;50.832;5.590;2022-11-12T13:52:07;14.90;99.90
29849;DHT22;16728;50.832;5.590;2022-11-12T13:58:31;14.90;99.90
29849;DHT22;16728;50.832;5.590;2022-11-12T14:01:33;14.90;99.90
29849;DHT22;16728;50.832;5.590;2022-11-12T14:04:35;15.00;99.90
29849;DHT22;16728;50.832;5.590;2022-11-12T14:14:45;14.80;99.90
29849;DHT22;16728;50.832;5.590;2022-11-12T14:17:55;14.70;99.90
29849;DHT22;16728;50.832;5.590;2022-11-12T14:21:05;14.70;99.90
29849;DHT22;16728;50.832;5.590;2022-11-12T14:24:10;14.70;99.90
29849;DHT22;16728;50.832;5.590;2022-11-12T14:27:42;14.60;99.90
29849;DHT22;16728;50.832;5.590;2022-11-12T14:30:44;14.60;99.90
29849;DHT22;16728;50.832;5.590;2022-11-12T14:33:46;14.60;99.90
29849;DHT22;16728;50.832;5.590;2022-11-12T14:36:48;14.60;99.90
29849;DHT22;16728;50.832;5.590;2022-11-12T14:39:51;14.60;99.90
29849;DHT22;16728;50.832;5.590;2022-11-12T14:42:53;14.50;99.90
29849;DHT22;16728;50.832;5.590;2022-11-12T14:45:57;14.50;99.90
29849;DHT22;16728;50.832;5.590;2022-11-12T14:49:00;14.40;99.90
29849;DHT22;16728;50.832;5.590;2022-11-12T14:55:24;14.30;99.90
29849;DHT22;16728;50.832;5.590;2022-11-12T14:58:27;14.30;99.90
29849;DHT22;16728;50.832;5.590;2022-11-12T15:01:32;14.20;99.90
29849;DHT22;16728;50.832;5.590;2022-11-12T15:05:00;14.10;99.90
29849;DHT22;16728;50.832;5.590;2022-11-12T15:08:04;14.20;99.90
29849;DHT22;16728;50.832;5.590;2022-11-12T15:11:42;14.10;99.90
29849;DHT22;16728;50.832;5.590;2022-11-12T15:14:45;14.00;99.90
29849;DHT22;16728;50.832;5.590;2022-11-12T15:18:02;14.00;99.90
29849;DHT22;16728;50.832;5.590;2022-11-12T15:21:24;14.00;99.90
29849;DHT22;16728;50.832;5.590;2022-11-12T15:24:30;14.10;99.90
29849;DHT22;16728;50.832;5.590;2022-11-12T15:27:40;14.10;99.90
29849;DHT22;16728;50.832;5.590;2022-11-12T15:30:59;14.00;99.90
29849;DHT22;16728;50.832;5.590;2022-11-12T15:34:30;13.90;99.90
29849;DHT22;16728;50.832;5.590;2022-11-12T15:37:40;13.80;99.90
29849;DHT22;16728;50.832;5.590;2022-11-12T15:40:45;13.70;99.90
29849;DHT22;16728;50.832;5.590;2022-11-12T15:43:47;13.60;99.90
29849;DHT22;16728;50.832;5.590;2022-11-12T15:46:49;13.60;99.90
29849;DHT22;16728;50.832;5.590;2022-11-12T15:49:53;13.50;99.90
29849;DHT22;16728;50.832;5.590;2022-11-12T15:52:54;13.40;99.90
29849;DHT22;16728;50.832;5.590;2022-11-12T15:55:56;13.30;99.90
29849;DHT22;16728;50.832;5.590;2022-11-12T15:58:58;13.20;99.90
29849;DHT22;16728;50.832;5.590;2022-11-12T16:02:00;13.10;99.90
29849;DHT22;16728;50.832;5.590;2022-11-12T16:05:02;13.10;99.90
29849;DHT22;16728;50.832;5.590;2022-11-12T16:08:04;13.00;99.90
29849;DHT22;16728;50.832;5.590;2022-11-12T16:11:08;13.00;99.90
29849;DHT22;16728;50.832;5.590;2022-11-12T16:14:30;13.00;99.90
29849;DHT22;16728;50.832;5.590;2022-11-12T16:17:33;12.90;99.90
29849;DHT22;16728;50.832;5.590;2022-11-12T16:20:35;13.00;99.90
29849;DHT22;16728;50.832;5.590;2022-11-12T16:23:37;13.00;99.90
29849;DHT22;16728;50.832;5.590;2022-11-12T16:26:38;13.00;99.90
29849;DHT22;16728;50.832;5.590;2022-11-12T16:29:40;13.00;99.90
29849;DHT22;16728;50.832;5.590;2022-11-12T16:32:43;13.00;99.90
29849;DHT22;16728;50.832;5.590;2022-11-12T16:35:45;12.80;99.90
29849;DHT22;16728;50.832;5.590;2022-11-12T16:38:47;12.60;99.90
29849;DHT22;16728;50.832;5.590;2022-11-12T16:41:49;12.50;99.90
29849;DHT22;16728;50.832;5.590;2022-11-12T16:44:51;12.40;99.90
29849;DHT22;16728;50.832;5.590;2022-11-12T16:47:54;12.30;99.90
29849;DHT22;16728;50.832;5.590;2022-11-12T16:50:58;12.30;99.90
29849;DHT22;16728;50.832;5.590;2022-11-12T16:54:00;12.20;99.90
29849;DHT22;16728;50.832;5.590;2022-11-12T16:57:02;12.10;99.90
29849;DHT22;16728;50.832;5.590;2022-11-12T17:00:05;11.90;99.90
29849;DHT22;16728;50.832;5.590;2022-11-12T17:03:10;11.90;99.90
29849;DHT22;16728;50.832;5.590;2022-11-12T17:06:13;11.90;99.90
29849;DHT22;16728;50.832;5.590;2022-11-12T17:09:15;11.90;99.90
29849;DHT22;16728;50.832;5.590;2022-11-12T17:12:17;11.80;99.90
29849;DHT22;16728;50.832;5.590;2022-11-12T17:15:19;11.80;99.90
29849;DHT22;16728;50.832;5.590;2022-11-12T17:18:21;11.80;99.90
29849;DHT22;16728;50.832;5.590;2022-11-12T17:21:23;11.80;99.90
29849;DHT22;16728;50.832;5.590;2022-11-12T17:24:25;11.70;99.90
29849;DHT22;16728;50.832;5.590;2022-11-12T17:27:27;11.70;99.90
29849;DHT22;16728;50.832;5.590;2022-11-12T17:30:29;11.60;99.90
29849;DHT22;16728;50.832;5.590;2022-11-12T17:33:31;11.60;99.90
29849;DHT22;16728;50.832;5.590;2022-11-12T17:36:33;11.50;99.90
29849;DHT22;16728;50.832;5.590;2022-11-12T17:39:43;11.60;99.90
29849;DHT22;16728;50.832;5.590;2022-11-12T17:42:45;11.60;99.90
29849;DHT22;16728;50.832;5.590;2022-11-12T17:45:50;11.50;99.90
29849;DHT22;16728;50.832;5.590;2022-11-12T17:48:53;11.50;99.90
29849;DHT22;16728;50.832;5.590;2022-11-12T17:51:55;11.50;99.90
29849;DHT22;16728;50.832;5.590;2022-11-12T17:54:57;11.50;99.90
29849;DHT22;16728;50.832;5.590;2022-11-12T17:57:59;11.30;99.90
29849;DHT22;16728;50.832;5.590;2022-11-12T18:01:10;11.30;99.90
29849;DHT22;16728;50.832;5.590;2022-11-12T18:04:12;11.30;99.90
29849;DHT22;16728;50.832;5.590;2022-11-12T18:07:14;11.20;99.90
29849;DHT22;16728;50.832;5.590;2022-11-12T18:10:16;11.20;99.90
29849;DHT22;16728;50.832;5.590;2022-11-12T18:13:20;11.20;99.90
29849;DHT22;16728;50.832;5.590;2022-11-12T18:16:24;11.20;99.90
29849;DHT22;16728;50.832;5.590;2022-11-12T18:19:26;11.20;99.90
29849;DHT22;16728;50.832;5.590;2022-11-12T18:22:28;11.10;99.90
29849;DHT22;16728;50.832;5.590;2022-11-12T18:25:30;11.10;99.90
29849;DHT22;16728;50.832;5.590;2022-11-12T18:28:32;11.00;99.90
29849;DHT22;16728;50.832;5.590;2022-11-12T18:31:34;11.00;99.90
29849;DHT22;16728;50.832;5.590;2022-11-12T18:34:35;11.00;99.90
29849;DHT22;16728;50.832;5.590;2022-11-12T18:37:42;10.90;99.90
29849;DHT22;16728;50.832;5.590;2022-11-12T18:40:44;10.90;99.90
29849;DHT22;16728;50.832;5.590;2022-11-12T18:43:46;10.80;99.90
29849;DHT22;16728;50.832;5.590;2022-11-12T18:46:48;10.80;99.90
29849;DHT22;16728;50.832;5.590;2022-11-12T18:49:50;10.80;99.90
29849;DHT22;16728;50.832;5.590;2022-11-12T18:52:52;10.80;99.90
29849;DHT22;16728;50.832;5.590;2022-11-12T18:55:54;10.80;99.90
29849;DHT22;16728;50.832;5.590;2022-11-12T18:58:56;10.80;99.90
29849;DHT22;16728;50.832;5.590;2022-11-12T19:01:58;10.80;99.90
29849;DHT22;16728;50.832;5.590;2022-11-12T19:05:00;10.80;99.90
29849;DHT22;16728;50.832;5.590;2022-11-12T19:08:02;10.70;99.90
29849;DHT22;16728;50.832;5.590;2022-11-12T19:11:07;10.70;99.90
29849;DHT22;16728;50.832;5.590;2022-11-12T19:14:09;10.70;99.90
29849;DHT22;16728;50.832;5.590;2022-11-12T19:17:11;10.70;99.90
29849;DHT22;16728;50.832;5.590;2022-11-12T19:20:13;10.70;99.90
29849;DHT22;16728;50.832;5.590;2022-11-12T19:23:15;10.70;99.90
29849;DHT22;16728;50.832;5.590;2022-11-12T19:26:17;10.70;99.90
29849;DHT22;16728;50.832;5.590;2022-11-12T19:29:19;10.80;99.90
29849;DHT22;16728;50.832;5.590;2022-11-12T19:32:21;10.70;99.90
29849;DHT22;16728;50.832;5.590;2022-11-12T19:35:23;10.70;99.90
29849;DHT22;16728;50.832;5.590;2022-11-12T19:38:26;10.70;99.90
29849;DHT22;16728;50.832;5.590;2022-11-12T19:41:29;10.60;99.90
29849;DHT22;16728;50.832;5.590;2022-11-12T19:44:31;10.60;99.90
29849;DHT22;16728;50.832;5.590;2022-11-12T19:47:32;10.50;99.90
29849;DHT22;16728;50.832;5.590;2022-11-12T19:50:35;10.40;99.90
29849;DHT22;16728;50.832;5.590;2022-11-12T19:53:41;10.50;99.90
29849;DHT22;16728;50.832;5.590;2022-11-12T19:56:45;10.60;99.90
29849;DHT22;16728;50.832;5.590;2022-11-12T19:59:47;10.60;99.90
29849;DHT22;16728;50.832;5.590;2022-11-12T20:02:49;10.60;99.90
29849;DHT22;16728;50.832;5.590;2022-11-12T20:05:51;10.60;99.90
29849;DHT22;16728;50.832;5.590;2022-11-12T20:08:53;10.60;99.90
29849;DHT22;16728;50.832;5.590;2022-11-12T20:11:55;10.60;99.90
29849;DHT22;16728;50.832;5.590;2022-11-12T20:14:57;10.50;99.90
29849;DHT22;16728;50.832;5.590;2022-11-12T20:17:59;10.40;99.90
29849;DHT22;16728;50.832;5.590;2022-11-12T20:21:00;10.40;99.90
29849;DHT22;16728;50.832;5.590;2022-11-12T20:24:07;10.50;99.90
29849;DHT22;16728;50.832;5.590;2022-11-12T20:27:09;10.50;99.90
29849;DHT22;16728;50.832;5.590;2022-11-12T20:30:12;10.50;99.90
29849;DHT22;16728;50.832;5.590;2022-11-12T20:33:13;10.50;99.90
29849;DHT22;16728;50.832;5.590;2022-11-12T20:36:18;10.60;99.90
29849;DHT22;16728;50.832;5.590;2022-11-12T20:39:21;10.50;99.90
29849;DHT22;16728;50.832;5.590;2022-11-12T20:42:23;10.50;99.90
29849;DHT22;16728;50.832;5.590;2022-11-12T20:45:24;10.40;99.90